Laurent Verva

Laurent Verva

Statistiques 2026

  • Courses courues : 42
  • Nb de victoires : -
  • Nb de places : 1
  • Écart gagnant : 143
  • Réussite à la gagne : -
  • Réussite à la place : 2%
Musique : 0a 8a 4a 6a 6a 0a 5a 5a Da 2a 9a 6a 5a Da 6a 0a 7a 4a
DateRangCatégorieAlloc.Dist.HippodromeChevalRed. KmSpé.
06/05/19 3 Trot 14 000€ 2 825m Le Croise Laroche Feu des Pres 1'16"4 Attelé
05/05/19 4 Mixte 13 000€ 2 625m Nancy Farca Sly 1'17"2 Attelé
05/05/19 4 Mixte 18 000€ 2 625m Nancy Au Temps Dubonheur 1'15"2 Attelé
08/05/19 9 Mixte 15 000€ 2 800m Strasbourg Florela du Loisir 1'20"9 Attelé
08/05/19 9 Mixte 21 000€ 2 825m Strasbourg Amio Josselyn 1'17"9 Attelé
11/05/19 6 Trot 15 000€ 2 575m Reims Destrier d'Isques 1'15"1 Attelé
11/05/19 2 Trot 13 000€ 2 550m Reims Erromanga 1'17"1 Attelé
11/05/19 5 Trot 19 000€ 2 575m Reims Defi Calendes 1'14"6 Attelé
11/05/19 8 Trot 14 000€ 2 550m Reims Fraggle Rock 1'18"5 Attelé
11/05/19 9 Trot 15 000€ 2 550m Reims Emile de Jal 1'16"7 Attelé
12/05/19 9 Trot 15 000€ 2 725m Lisieux Elokai 1'17"1 Attelé
12/05/19 D Trot 13 000€ 2 750m Lisieux Falco d'Alci Attelé
13/05/19 5 Trot 14 000€ 2 700m Le Croise Laroche Flashback Syga 1'16"2 Attelé
18/05/19 D Trot 13 000€ 2 400m Amiens Frivole d'Arbaz Attelé
20/05/19 D Trot 15 000€ 2 825m Le Croise Laroche Flamme Mencourt Attelé
20/05/19 5 Trot 21 000€ 2 700m Le Croise Laroche Au Temps Dubonheur 1'13"2 Attelé
19/05/19 D Trot 13 000€ 2 100m Le Touquet Gelina de Piquet Attelé
19/05/19 4 Trot 13 000€ 2 600m Le Touquet Fraggle Rock 1'22"1 Attelé
19/05/19 4 Trot 13 000€ 2 600m Le Touquet Flashback Syga 1'23"5 Attelé
19/05/19 0 Trot 18 000€ 2 600m Le Touquet Djab d'Acier Attelé
19/05/19 7 Trot 13 000€ 2 600m Le Touquet Erromanga 1'22"1 Attelé
22/05/19 9 Trot 25 000€ 2 750m La Capelle Cherie 1'15"7 Attelé lire

N'a été qu'une simple figurante au sein du peloton.

22/05/19 2 Trot 21 000€ 2 700m La Capelle Faucon de Fael 1'14"1 Attelé lire

Tout de suite à la pointe du combat, a très bien tenu sa partie jusqu'au bout.

23/05/19 4 Trot 16 000€ 2 550m Reims For Ever Mencourt 1'16"0 Attelé
23/05/19 0 Trot 16 000€ 2 550m Reims Falco d'Alci Attelé
23/05/19 4 Trot 20 000€ 2 550m Reims Elliot d'Alci 1'14"6 Attelé
26/05/19 3 Trot 21 000€ 2 750m La Capelle Atrium Gede 1'15"4 Attelé
26/05/19 D Trot 13 000€ 2 700m La Capelle Fakir Kuky Attelé
26/05/19 4 Trot 15 000€ 2 700m La Capelle Ethano de Bouteau 1'15"4 Attelé
27/05/19 3 Trot 18 000€ 2 400m Amiens Fortune de Cerisy 1'17"1 Attelé lire

Après avoir figuré, est venue prendre la troisième place près du but.

29/05/19 5 Trot 19 000€ 2 600m Nancy Etoile Dubonheur 1'16"9 Attelé lire

Après avoir figuré au sein du peloton, a bien conclu sans avoir ses aises.

29/05/19 6 Trot 27 000€ 2 600m Nancy Au Temps Dubonheur 1'15"7 Attelé lire

Après avoir figuré au sein du peloton, a terminé de bonne façon.

29/05/19 3 Trot 15 000€ 2 625m Nancy Filou Reve 1'16"3 Attelé lire

Après avoir attendu en retrait, a terminé de belle façon.

29/05/19 D Trot 15 000€ 2 625m Nancy Flamme Mencourt Attelé lire

Jamais menaçante, a été sanctionnée avant la fin du premier tour.

30/05/19 8 Trot 11 000€ 2 500m Bihorel Les Rouens Get d'Eronville TNC Attelé
30/05/19 D Trot 11 000€ 2 500m Bihorel Les Rouens Gnaque Attelé
30/05/19 2 Trot 11 000€ 2 500m Bihorel Les Rouens Frimousse de Marny Attelé
30/05/19 D Trot 11 000€ 2 500m Bihorel Les Rouens Fidji de Piencourt Attelé
01/06/19 D Trot 13 000€ 2 400m Amiens Fysalia Attelé
02/06/19 1 Trot 10 000€ 2 850m Laon Flashback Syga 1'18"2 Attelé
02/06/19 0 Trot 10 000€ 2 650m Laon General Williams Attelé
02/06/19 5 Trot 10 000€ 2 850m Laon Fee du Houlet 1'20"9 Attelé
02/06/19 3 Trot 10 000€ 2 875m Laon Easy Sam 1'17"4 Attelé
08/06/19 2 Mixte 13 000€ 2 600m Nancy Fraggle Rock 1'19"2 Attelé
08/06/19 5 Mixte 16 000€ 2 600m Nancy Elliot d'Alci 1'16"3 Attelé
09/06/19 1 Trot 13 000€ 2 600m Le Touquet Gold des Pres 1'25"3 Attelé
09/06/19 7 Trot 13 000€ 2 600m Le Touquet Filae des Salines 1'24"4 Attelé
09/06/19 D Trot 16 000€ 2 600m Le Touquet Cakou de Chamant Attelé
09/06/19 5 Trot 13 000€ 2 600m Le Touquet Gnaque 1'27"4 Attelé
09/06/19 D Trot 16 000€ 2 600m Le Touquet Dauphine d'Alci Attelé